^^
Datos históricos de la estación: Murcia-Puente Tocinos
Diario Informe para Abril 9, 2019 Unidades:  Métrico    Inglés   Ambas
Diario Semanal Mensual Anual Configurable
  Máximo: Mínimo: Media:
Temperatura: 21.6 °C 13.1 °C 16.9 °C
Punto de rocio: 10.2 °C 0.1 °C 5.1 °C
Humedad: 70% 25% 48%
Velocidad viento: 26.2km/h 2.9km/h 9.8km/h
Racha viento: 49.9km/h - -
Viento- - WSW
Presión: 1013.8 hPa 1009.8 hPa -
Precipitación: 0.0 mm    
Historical Graphs
 
 
Tabla de datos para Abril 9, 2019
Hora Temperatura Punto de rocio Presión Viento Velocidad viento Racha viento Humedad Intensidad lluvia(por hora) Nubes
00:00 17.4 °C 9.8 °C 1011.0 hPa SW 8.0 km/h 11.3 km/h 61% 0.0 mm CLR
00:04 17.4 °C 9.8 °C 1011.1 hPa NNW 6.9 km/h 7.4 km/h 61% 0.0 mm CLR
00:09 17.1 °C 10.0 °C 1011.1 hPa NNW 5.8 km/h 7.4 km/h 63% 0.0 mm CLR
00:14 16.8 °C 9.9 °C 1011.1 hPa WNW 5.8 km/h 3.9 km/h 64% 0.0 mm CLR
00:19 16.8 °C 9.2 °C 1011.1 hPa SW 3.2 km/h 10.0 km/h 61% 0.0 mm CLR
00:25 17.1 °C 9.0 °C 1011.1 hPa WSW 3.2 km/h 12.9 km/h 59% 0.0 mm CLR
00:29 17.1 °C 10.0 °C 1011.1 hPa NNW 6.4 km/h 6.4 km/h 63% 0.0 mm CLR
00:35 16.8 °C 10.2 °C 1011.2 hPa NNW 8.0 km/h 9.7 km/h 65% 0.0 mm CLR
00:39 16.4 °C 10.1 °C 1011.2 hPa North 4.7 km/h 5.8 km/h 66% 0.0 mm CLR
00:44 16.2 °C 9.8 °C 1011.2 hPa NNW 4.7 km/h 7.4 km/h 66% 0.0 mm CLR
00:49 16.1 °C 9.9 °C 1011.3 hPa NNW 3.9 km/h 7.4 km/h 67% 0.0 mm CLR
00:55 15.9 °C 10.0 °C 1011.3 hPa East 3.9 km/h 7.6 km/h 68% 0.0 mm CLR
00:59 15.8 °C 9.9 °C 1011.3 hPa ESE 3.9 km/h 9.3 km/h 68% 0.0 mm CLR
01:05 16.0 °C 9.7 °C 1011.4 hPa East 3.2 km/h 11.3 km/h 66% 0.0 mm CLR
01:09 16.3 °C 9.5 °C 1011.4 hPa ENE 5.8 km/h 5.0 km/h 64% 0.0 mm CLR
01:15 16.4 °C 9.6 °C 1011.4 hPa East 4.8 km/h 8.0 km/h 64% 0.0 mm CLR
01:19 16.6 °C 9.5 °C 1011.4 hPa SSE 3.9 km/h 7.4 km/h 63% 0.0 mm CLR
01:25 16.6 °C 9.3 °C 1011.4 hPa SSE 3.9 km/h 3.7 km/h 62% 0.0 mm CLR
01:30 16.6 °C 9.8 °C 1011.4 hPa SSE 3.2 km/h 5.6 km/h 64% 0.0 mm CLR
01:35 16.4 °C 9.6 °C 1011.5 hPa WSW 3.2 km/h 5.6 km/h 64% 0.0 mm CLR
01:39 16.3 °C 9.7 °C 1011.5 hPa WSW 3.9 km/h 5.6 km/h 65% 0.0 mm CLR
01:45 16.2 °C 9.4 °C 1011.5 hPa WSW 3.2 km/h 8.0 km/h 64% 0.0 mm CLR
01:49 16.2 °C 9.4 °C 1011.4 hPa WSW 3.9 km/h 7.4 km/h 64% 0.0 mm CLR
01:55 16.2 °C 9.2 °C 1011.4 hPa WSW 3.2 km/h 9.7 km/h 63% 0.0 mm CLR
01:59 16.2 °C 8.9 °C 1011.4 hPa WNW 5.8 km/h 13.0 km/h 62% 0.0 mm CLR
02:05 16.3 °C 8.8 °C 1012.0 hPa WNW 4.8 km/h 40.2 km/h 61% 0.0 mm CLR
02:09 16.2 °C 8.4 °C 1012.0 hPa NW 18.0 km/h 42.6 km/h 60% 0.0 mm CLR
02:15 16.0 °C 8.0 °C 1012.0 hPa WNW 18.0 km/h 40.7 km/h 59% 0.0 mm CLR
02:19 15.8 °C 8.1 °C 1012.2 hPa WNW 22.5 km/h 31.5 km/h 60% 0.0 mm CLR
02:24 15.5 °C 8.0 °C 1012.2 hPa West 22.5 km/h 29.6 km/h 61% 0.0 mm CLR
02:29 15.2 °C 7.7 °C 1012.2 hPa WNW 18.3 km/h 35.2 km/h 61% 0.0 mm CLR
02:35 15.1 °C 7.9 °C 1012.0 hPa WNW 18.3 km/h 27.8 km/h 62% 0.0 mm CLR
02:39 14.8 °C 7.8 °C 1012.0 hPa WNW 19.0 km/h 25.9 km/h 63% 0.0 mm CLR
02:45 14.7 °C 7.9 °C 1012.0 hPa West 19.0 km/h 20.4 km/h 64% 0.0 mm CLR
02:49 14.7 °C 7.7 °C 1012.0 hPa NW 14.8 km/h 22.2 km/h 63% 0.0 mm CLR
02:55 14.7 °C 7.7 °C 1012.0 hPa West 14.5 km/h 30.6 km/h 63% 0.0 mm CLR
03:00 14.7 °C 7.7 °C 1012.0 hPa West 16.1 km/h 24.1 km/h 63% 0.0 mm CLR
03:05 14.7 °C 7.7 °C 1012.1 hPa West 16.4 km/h 18.5 km/h 63% 0.0 mm CLR
03:09 14.8 °C 7.6 °C 1012.1 hPa NW 14.8 km/h 16.7 km/h 62% 0.0 mm CLR
03:15 14.8 °C 7.3 °C 1012.1 hPa WSW 14.8 km/h 11.1 km/h 61% 0.0 mm CLR
03:19 14.8 °C 7.3 °C 1012.2 hPa West 9.5 km/h 10.0 km/h 61% 0.0 mm CLR
03:25 14.9 °C 7.4 °C 1012.2 hPa WSW 9.7 km/h 19.3 km/h 61% 0.0 mm CLR
03:29 14.9 °C 7.4 °C 1012.2 hPa SW 8.4 km/h 7.4 km/h 61% 0.0 mm CLR
03:35 14.9 °C 7.2 °C 1012.1 hPa SW 8.0 km/h 12.9 km/h 60% 0.0 mm CLR
03:39 14.9 °C 7.2 °C 1012.1 hPa WSW 6.9 km/h 9.3 km/h 60% 0.0 mm CLR
03:45 14.8 °C 7.1 °C 1012.1 hPa SW 8.0 km/h 12.9 km/h 60% 0.0 mm CLR
03:49 14.7 °C 7.0 °C 1012.1 hPa WSW 6.4 km/h 11.1 km/h 60% 0.0 mm CLR
03:55 14.7 °C 7.3 °C 1012.1 hPa WSW 6.4 km/h 7.4 km/h 61% 0.0 mm CLR
03:59 14.6 °C 7.2 °C 1012.1 hPa West 5.8 km/h 5.6 km/h 61% 0.0 mm CLR
04:05 14.5 °C 7.1 °C 1012.2 hPa West 4.8 km/h 9.7 km/h 61% 0.0 mm CLR
04:09 14.4 °C 6.9 °C 1012.2 hPa WSW 5.0 km/h 11.1 km/h 61% 0.0 mm CLR
04:15 14.5 °C 7.1 °C 1012.2 hPa WSW 5.0 km/h 9.3 km/h 61% 0.0 mm CLR
04:19 14.6 °C 7.2 °C 1012.1 hPa SW 6.4 km/h 9.3 km/h 61% 0.0 mm CLR
04:25 14.6 °C 7.2 °C 1012.1 hPa SW 6.4 km/h 9.3 km/h 61% 0.0 mm CLR
04:29 14.5 °C 7.1 °C 1012.1 hPa WSW 5.8 km/h 7.4 km/h 61% 0.0 mm CLR
04:35 14.5 °C 7.1 °C 1011.9 hPa WSW 5.8 km/h 5.6 km/h 61% 0.0 mm CLR
04:39 14.4 °C 7.2 °C 1011.9 hPa WSW 3.2 km/h 6.4 km/h 62% 0.0 mm CLR
04:45 14.3 °C 7.1 °C 1011.9 hPa WSW 3.2 km/h 3.7 km/h 62% 0.0 mm CLR
04:49 14.2 °C 7.3 °C 1012.1 hPa WSW 2.9 km/h 3.7 km/h 63% 0.0 mm CLR
04:55 14.1 °C 7.2 °C 1012.1 hPa West 3.2 km/h 8.0 km/h 63% 0.0 mm CLR
04:59 13.8 °C 7.3 °C 1012.1 hPa NW 3.9 km/h 7.4 km/h 65% 0.0 mm CLR
05:05 13.7 °C 7.7 °C 1012.2 hPa NW 3.2 km/h 9.7 km/h 67% 0.0 mm CLR
05:10 13.4 °C 7.8 °C 1012.2 hPa NW 5.0 km/h 9.3 km/h 69% 0.0 mm CLR
05:14 13.4 °C 7.8 °C 1012.2 hPa NW 5.0 km/h 7.4 km/h 69% 0.0 mm CLR
05:19 13.4 °C 8.1 °C 1011.9 hPa NW 5.8 km/h 9.3 km/h 70% 0.0 mm CLR
05:25 13.3 °C 7.9 °C 1011.9 hPa NNW 5.8 km/h 11.1 km/h 70% 0.0 mm CLR
05:29 13.1 °C 7.7 °C 1011.9 hPa NNW 6.9 km/h 14.8 km/h 70% 0.0 mm CLR
05:34 13.3 °C 7.5 °C 1012.0 hPa NW 6.9 km/h 14.8 km/h 68% 0.0 mm CLR
05:40 13.4 °C 7.6 °C 1012.0 hPa West 11.1 km/h 13.0 km/h 68% 0.0 mm CLR
05:44 13.5 °C 7.7 °C 1012.0 hPa WNW 11.1 km/h 11.1 km/h 68% 0.0 mm CLR
05:49 13.6 °C 7.6 °C 1012.0 hPa WNW 8.7 km/h 13.0 km/h 67% 0.0 mm CLR
05:55 13.6 °C 7.4 °C 1012.0 hPa WNW 9.7 km/h 19.3 km/h 66% 0.0 mm CLR
05:59 13.7 °C 7.2 °C 1012.0 hPa West 9.5 km/h 13.0 km/h 65% 0.0 mm CLR
06:05 13.7 °C 7.2 °C 1012.0 hPa WNW 9.7 km/h 14.5 km/h 65% 0.0 mm CLR
06:09 13.7 °C 7.2 °C 1012.0 hPa West 8.4 km/h 13.0 km/h 65% 0.0 mm CLR
06:15 13.6 °C 7.2 °C 1012.0 hPa WSW 8.4 km/h 11.1 km/h 65% 0.0 mm CLR
06:20 13.6 °C 7.3 °C 1012.0 hPa West 8.0 km/h 9.7 km/h 66% 0.0 mm CLR
06:25 13.4 °C 7.2 °C 1012.0 hPa WNW 6.9 km/h 3.7 km/h 66% 0.0 mm CLR
06:29 13.3 °C 7.1 °C 1012.0 hPa SW 3.2 km/h 7.4 km/h 66% 0.0 mm CLR
06:35 13.3 °C 7.1 °C 1012.0 hPa WSW 3.2 km/h 8.0 km/h 66% 0.0 mm CLR
06:40 13.3 °C 7.1 °C 1012.0 hPa SW 3.2 km/h 9.7 km/h 66% 0.0 mm CLR
06:45 13.3 °C 7.1 °C 1012.0 hPa SSW 3.2 km/h 8.0 km/h 66% 0.0 mm CLR
06:49 13.3 °C 7.1 °C 1012.1 hPa SSW 5.0 km/h 9.3 km/h 66% 0.0 mm CLR
06:55 13.4 °C 6.9 °C 1012.1 hPa SSW 5.0 km/h 9.3 km/h 65% 0.0 mm CLR
07:00 13.4 °C 6.7 °C 1012.1 hPa SW 8.0 km/h 12.9 km/h 64% 0.0 mm CLR
07:05 13.6 °C 6.4 °C 1012.4 hPa SW 8.0 km/h 11.3 km/h 62% 0.0 mm CLR
07:09 13.7 °C 6.6 °C 1012.4 hPa West 6.9 km/h 8.7 km/h 62% 0.0 mm CLR
07:15 13.7 °C 6.3 °C 1012.4 hPa WSW 6.9 km/h 14.8 km/h 61% 0.0 mm CLR
07:20 13.8 °C 6.4 °C 1012.4 hPa WSW 8.0 km/h 14.5 km/h 61% 0.0 mm CLR
07:25 13.6 °C 6.4 °C 1012.4 hPa WSW 8.0 km/h 14.5 km/h 62% 0.0 mm CLR
07:30 13.4 °C 6.0 °C 1012.4 hPa WSW 8.4 km/h 11.1 km/h 61% 0.0 mm CLR
07:35 13.4 °C 6.0 °C 1012.6 hPa West 8.4 km/h 7.4 km/h 61% 0.0 mm CLR
07:40 13.4 °C 6.0 °C 1012.6 hPa SW 5.8 km/h 9.3 km/h 61% 0.0 mm CLR
07:45 13.4 °C 6.0 °C 1012.6 hPa WSW 5.8 km/h 7.4 km/h 61% 0.0 mm CLR
07:49 13.3 °C 5.9 °C 1012.9 hPa West 5.0 km/h 5.6 km/h 61% 0.0 mm CLR
07:55 13.3 °C 6.2 °C 1012.9 hPa West 4.8 km/h 4.8 km/h 62% 0.0 mm CLR
07:59 13.2 °C 6.1 °C 1012.9 hPa West 3.2 km/h 4.7 km/h 62% 0.0 mm CLR
08:04 13.2 °C 6.1 °C 1013.1 hPa West 3.2 km/h 5.6 km/h 62% 0.0 mm CLR
08:09 13.2 °C 6.1 °C 1013.1 hPa WSW 3.2 km/h 7.4 km/h 62% 0.0 mm CLR
08:15 13.3 °C 6.2 °C 1013.1 hPa WSW 3.2 km/h 5.6 km/h 62% 0.0 mm CLR
08:19 13.3 °C 6.2 °C 1013.2 hPa West 4.7 km/h 7.4 km/h 62% 0.0 mm CLR
08:25 13.4 °C 6.3 °C 1013.2 hPa West 3.2 km/h 8.0 km/h 62% 0.0 mm CLR
08:29 13.6 °C 6.4 °C 1013.2 hPa SW 3.9 km/h 7.4 km/h 62% 0.0 mm CLR
08:35 13.7 °C 6.6 °C 1013.4 hPa SSW 3.9 km/h 7.4 km/h 62% 0.0 mm CLR
08:39 13.8 °C 6.4 °C 1013.4 hPa SSE 3.9 km/h 7.4 km/h 61% 0.0 mm CLR
08:45 13.7 °C 6.3 °C 1013.4 hPa SSE 3.9 km/h 5.6 km/h 61% 0.0 mm CLR
08:50 13.8 °C 6.2 °C 1013.5 hPa SSE 4.7 km/h 7.4 km/h 60% 0.0 mm CLR
08:55 14.0 °C 6.4 °C 1013.5 hPa SSE 3.2 km/h 8.0 km/h 60% 0.0 mm CLR
09:00 14.3 °C 6.3 °C 1013.5 hPa SSE 3.2 km/h   59% 0.0 mm CLR
09:05 14.6 °C 6.4 °C 1013.7 hPa West 2.9 km/h 8.7 km/h 58% 0.0 mm CLR
09:09 14.7 °C 6.3 °C 1013.7 hPa WSW 3.2 km/h 7.4 km/h 57% 0.0 mm CLR
09:15 14.6 °C 6.2 °C 1013.7 hPa WSW 3.2 km/h 11.1 km/h 57% 0.0 mm CLR
09:19 14.6 °C 6.2 °C 1013.8 hPa WSW 5.0 km/h 7.4 km/h 57% 0.0 mm CLR
09:25 14.6 °C 6.4 °C 1013.8 hPa West 4.8 km/h 9.7 km/h 58% 0.0 mm CLR
09:30 14.8 °C 6.3 °C 1013.8 hPa WSW 3.9 km/h 9.5 km/h 57% 0.0 mm CLR
09:34 14.8 °C 6.1 °C 1013.7 hPa WSW 3.9 km/h 7.4 km/h 56% 0.0 mm CLR
09:40 14.9 °C 6.2 °C 1013.7 hPa SW 6.4 km/h 11.1 km/h 56% 0.0 mm CLR
09:45 14.9 °C 6.2 °C 1013.7 hPa WSW 8.0 km/h 9.7 km/h 56% 0.0 mm CLR
09:49 15.1 °C 6.1 °C 1013.8 hPa WNW 6.4 km/h 9.3 km/h 55% 0.0 mm CLR
09:55 15.2 °C 5.7 °C 1013.8 hPa WNW 8.0 km/h 12.9 km/h 53% 0.0 mm CLR
10:00 15.3 °C 5.5 °C 1013.8 hPa NW 9.7 km/h 16.1 km/h 52% 0.0 mm CLR
10:05 15.6 °C 5.5 °C 1013.7 hPa NNW 8.7 km/h 11.1 km/h 51% 0.0 mm CLR
10:09 15.7 °C 5.3 °C 1013.7 hPa NW 8.4 km/h 13.0 km/h 50% 0.0 mm CLR
10:15 15.8 °C 5.1 °C 1013.7 hPa NNE 8.4 km/h 14.8 km/h 49% 0.0 mm CLR
10:19 15.7 °C 5.0 °C 1013.8 hPa NW 8.7 km/h 22.2 km/h 49% 0.0 mm CLR
10:25 15.8 °C 5.1 °C 1013.8 hPa NW 8.7 km/h 18.5 km/h 49% 0.0 mm CLR
10:29 15.8 °C 5.1 °C 1013.8 hPa WNW 11.9 km/h 18.5 km/h 49% 0.0 mm CLR
10:35 16.0 °C 5.0 °C 1013.8 hPa NW 11.9 km/h 14.8 km/h 48% 0.0 mm CLR
10:40 16.1 °C 5.1 °C 1013.8 hPa NW 9.7 km/h 20.9 km/h 48% 0.0 mm CLR
10:45 16.1 °C 5.1 °C 1013.8 hPa NW 9.7 km/h 20.9 km/h 48% 0.0 mm CLR
10:50 16.2 °C 5.2 °C 1013.7 hPa NW 10.0 km/h 13.0 km/h 48% 0.0 mm CLR
10:55 16.4 °C 5.1 °C 1013.7 hPa NW 9.7 km/h 24.1 km/h 47% 0.0 mm CLR
11:00 16.6 °C 4.9 °C 1013.7 hPa NW 11.3 km/h 25.7 km/h 46% 0.0 mm CLR
11:05 16.5 °C 4.8 °C 1013.8 hPa NW 11.9 km/h 16.7 km/h 46% 0.0 mm CLR
11:10 16.6 °C 4.9 °C 1013.8 hPa NNW 11.9 km/h 16.7 km/h 46% 0.0 mm CLR
11:15 16.8 °C 5.1 °C 1013.8 hPa NW 11.9 km/h 16.7 km/h 46% 0.0 mm CLR
11:19 16.8 °C 4.8 °C 1013.7 hPa NW 8.4 km/h 18.5 km/h 45% 0.0 mm CLR
11:25 16.9 °C 4.6 °C 1013.7 hPa WNW 8.4 km/h 18.5 km/h 44% 0.0 mm CLR
11:30 17.1 °C 5.1 °C 1013.7 hPa NW 11.3 km/h 16.1 km/h 45% 0.0 mm CLR
11:35 17.1 °C 4.7 °C 1013.7 hPa WNW 10.3 km/h 11.1 km/h 44% 0.0 mm CLR
11:39 17.2 °C 4.5 °C 1013.7 hPa East 7.6 km/h 14.8 km/h 43% 0.0 mm CLR
11:45 17.4 °C 4.7 °C 1013.7 hPa WNW 8.0 km/h 14.5 km/h 43% 0.0 mm CLR
11:50 17.6 °C 4.2 °C 1013.5 hPa WNW 8.0 km/h 16.1 km/h 41% 0.0 mm CLR
11:55 17.7 °C 4.2 °C 1013.5 hPa WNW 8.0 km/h 19.3 km/h 41% 0.0 mm CLR
12:00 17.8 °C 4.0 °C 1013.5 hPa WNW 9.7 km/h 16.1 km/h 40% 0.0 mm CLR
12:05 17.9 °C 4.1 °C 1013.3 hPa SE 9.5 km/h 9.3 km/h 40% 0.0 mm CLR
12:10 18.2 °C 4.0 °C 1013.3 hPa West 4.7 km/h 15.6 km/h 39% 0.0 mm CLR
12:15 18.4 °C 3.4 °C 1013.3 hPa SW 3.2 km/h 20.9 km/h 37% 0.0 mm CLR
12:19 18.2 °C 3.6 °C 1013.1 hPa SW 11.1 km/h 11.1 km/h 38% 0.0 mm CLR
12:25 18.4 °C 3.1 °C 1013.1 hPa WNW 11.1 km/h 25.9 km/h 36% 0.0 mm CLR
12:29 18.5 °C 2.7 °C 1013.1 hPa West 11.9 km/h 25.1 km/h 35% 0.0 mm CLR
12:35 18.6 °C 2.8 °C 1012.9 hPa WNW 11.3 km/h 30.6 km/h 35% 0.0 mm CLR
12:40 18.7 °C 2.9 °C 1012.9 hPa SW 14.0 km/h 20.4 km/h 35% 0.0 mm CLR
12:45 18.9 °C 3.1 °C 1012.9 hPa WSW 14.5 km/h 20.9 km/h 35% 0.0 mm CLR
12:50 19.1 °C 3.3 °C 1012.7 hPa SW 10.0 km/h 13.0 km/h 35% 0.0 mm CLR
12:55 19.2 °C 2.9 °C 1012.7 hPa SW 10.0 km/h 20.4 km/h 34% 0.0 mm CLR
13:00 19.4 °C 2.7 °C 1012.7 hPa WSW 11.3 km/h 24.1 km/h 33% 0.0 mm CLR
13:05 19.4 °C 2.7 °C 1012.6 hPa WSW 11.1 km/h 18.5 km/h 33% 0.0 mm CLR
13:10 19.6 °C 2.9 °C 1012.6 hPa WSW 12.9 km/h 22.5 km/h 33% 0.0 mm CLR
13:15 19.7 °C 2.6 °C 1012.6 hPa WSW 12.9 km/h 16.1 km/h 32% 0.0 mm CLR
13:19 19.6 °C 2.4 °C 1012.4 hPa WSW 11.9 km/h 16.7 km/h 32% 0.0 mm CLR
13:25 19.6 °C 2.4 °C 1012.4 hPa West 11.9 km/h 20.4 km/h 32% 0.0 mm CLR
13:30 19.8 °C 2.6 °C 1012.4 hPa SW 11.3 km/h 19.3 km/h 32% 0.0 mm CLR
13:35 20.1 °C 2.8 °C 1012.1 hPa WSW 11.3 km/h 32.2 km/h 32% 0.0 mm CLR
13:40 20.2 °C 2.9 °C 1012.1 hPa WNW 12.2 km/h 13.0 km/h 32% 0.0 mm CLR
13:45 20.1 °C 2.4 °C 1012.1 hPa West 12.9 km/h 22.5 km/h 31% 0.0 mm CLR
13:50 19.9 °C 2.3 °C 1011.9 hPa WSW 10.3 km/h 24.1 km/h 31% 0.0 mm CLR
13:55 19.9 °C 2.3 °C 1011.9 hPa West 11.3 km/h 19.3 km/h 31% 0.0 mm CLR
14:00 19.9 °C 2.2 °C 1011.9 hPa WSW 9.7 km/h 14.5 km/h 31% 0.0 mm CLR
14:05 19.7 °C 2.1 °C 1011.8 hPa WSW 10.0 km/h 20.4 km/h 31% 0.0 mm CLR
14:10 19.7 °C 2.6 °C 1011.8 hPa West 8.0 km/h 19.3 km/h 32% 0.0 mm CLR
14:15 19.6 °C 2.0 °C 1011.8 hPa ESE 8.4 km/h 10.0 km/h 31% 0.0 mm CLR
14:20 19.7 °C 2.6 °C 1011.6 hPa WSW 8.0 km/h 14.5 km/h 32% 0.0 mm CLR
14:25 19.7 °C 2.6 °C 1011.6 hPa North 8.0 km/h 14.5 km/h 32% 0.0 mm CLR
14:30 19.8 °C 2.6 °C 1011.6 hPa North 6.9 km/h 13.0 km/h 32% 0.0 mm CLR
14:35 19.8 °C 2.6 °C 1011.6 hPa NNW 6.9 km/h 8.4 km/h 32% 0.0 mm CLR
14:40 19.8 °C 3.1 °C 1011.6 hPa North 8.0 km/h 11.3 km/h 33% 0.0 mm CLR
14:45 19.8 °C 3.5 °C 1011.6 hPa North 8.0 km/h 14.5 km/h 34% 0.0 mm CLR
14:50 20.2 °C 2.9 °C 1011.4 hPa WNW 7.6 km/h 14.8 km/h 32% 0.0 mm CLR
14:55 20.6 °C 2.9 °C 1011.4 hPa North 7.6 km/h 20.4 km/h 31% 0.0 mm CLR
14:59 20.6 °C 3.3 °C 1011.4 hPa West 8.4 km/h 11.1 km/h 32% 0.0 mm CLR
15:05 20.7 °C 2.9 °C 1011.1 hPa NW 8.4 km/h 16.7 km/h 31% 0.0 mm CLR
15:10 20.6 °C 2.4 °C 1011.1 hPa WNW 8.7 km/h 14.8 km/h 30% 0.0 mm CLR
15:15 20.5 °C 1.8 °C 1011.1 hPa WNW 9.7 km/h 11.3 km/h 29% 0.0 mm CLR
15:20 20.7 °C 2.0 °C 1010.9 hPa NW 4.8 km/h 9.7 km/h 29% 0.0 mm CLR
15:25 20.8 °C 1.6 °C 1010.9 hPa NE 4.8 km/h 20.9 km/h 28% 0.0 mm CLR
15:30 20.9 °C 2.2 °C 1010.9 hPa West 9.7 km/h 30.6 km/h 29% 0.0 mm CLR
15:35 20.8 °C 2.1 °C 1010.7 hPa West 9.7 km/h 32.2 km/h 29% 0.0 mm CLR
15:40 20.8 °C 2.1 °C 1010.7 hPa WSW 17.2 km/h 18.5 km/h 29% 0.0 mm CLR
15:45 21.1 °C 1.9 °C 1010.7 hPa WSW 17.2 km/h 33.3 km/h 28% 0.0 mm CLR
15:50 21.4 °C 2.1 °C 1010.6 hPa West 16.1 km/h 32.2 km/h 28% 0.0 mm CLR
15:55 21.4 °C 1.6 °C 1010.6 hPa WSW 16.1 km/h 30.6 km/h 27% 0.0 mm CLR
16:00 21.3 °C 1.6 °C 1010.6 hPa SW 14.5 km/h 35.4 km/h 27% 0.0 mm CLR
16:05 21.4 °C 1.6 °C 1010.4 hPa WSW 14.5 km/h 35.4 km/h 27% 0.0 mm CLR
16:10 21.2 °C 0.9 °C 1010.4 hPa WSW 18.3 km/h 37.0 km/h 26% 0.0 mm CLR
16:15 21.3 °C 1.6 °C 1010.4 hPa WSW 18.3 km/h 29.6 km/h 27% 0.0 mm CLR
16:20 21.3 °C 1.6 °C 1010.2 hPa West 18.0 km/h 14.8 km/h 27% 0.0 mm CLR
16:25 21.5 °C 1.7 °C 1010.2 hPa WNW 18.0 km/h 17.2 km/h 27% 0.0 mm CLR
16:30 21.6 °C 1.3 °C 1010.2 hPa WSW 11.1 km/h 16.7 km/h 26% 0.0 mm CLR
16:35 21.6 °C 1.3 °C 1009.8 hPa WSW 11.3 km/h 14.5 km/h 26% 0.0 mm CLR
16:40 21.5 °C 1.2 °C 1009.8 hPa WNW 10.0 km/h 22.2 km/h 26% 0.0 mm CLR
16:45 21.4 °C 0.5 °C 1009.8 hPa West 9.7 km/h 29.0 km/h 25% 0.0 mm CLR
16:49 21.2 °C 0.9 °C 1009.8 hPa WSW 14.0 km/h 22.2 km/h 26% 0.0 mm CLR
16:55 21.3 °C 0.4 °C 1009.8 hPa WNW 14.0 km/h 27.8 km/h 25% 0.0 mm CLR
17:00 21.1 °C 0.3 °C 1009.8 hPa West 19.3 km/h 30.6 km/h 25% 0.0 mm CLR
17:05 21.1 °C 0.3 °C 1009.9 hPa West 18.3 km/h 20.4 km/h 25% 0.0 mm CLR
17:10 21.2 °C 0.4 °C 1009.9 hPa SW 14.0 km/h 22.2 km/h 25% 0.0 mm CLR
17:15 21.1 °C 0.3 °C 1009.9 hPa SW 14.0 km/h 30.6 km/h 25% 0.0 mm CLR
17:20 20.9 °C 0.1 °C 1009.9 hPa WNW 18.3 km/h 27.8 km/h 25% 0.0 mm CLR
17:25 20.9 °C 0.1 °C 1009.9 hPa WSW 19.3 km/h 27.4 km/h 25% 0.0 mm CLR
17:29 20.9 °C 0.7 °C 1009.9 hPa SW 15.6 km/h 46.3 km/h 26% 0.0 mm CLR
17:35 20.6 °C 1.4 °C 1010.2 hPa WSW 14.5 km/h 45.1 km/h 28% 0.0 mm CLR
17:39 20.2 °C 1.6 °C 1010.2 hPa NW 21.7 km/h 37.0 km/h 29% 0.0 mm CLR
17:45 19.9 °C 2.3 °C 1010.2 hPa West 22.5 km/h 49.9 km/h 31% 0.0 mm CLR
17:50 19.7 °C 2.6 °C 1010.2 hPa West 22.5 km/h 33.8 km/h 32% 0.0 mm CLR
17:55 19.6 °C 2.4 °C 1010.2 hPa WNW 22.5 km/h 33.8 km/h 32% 0.0 mm CLR
18:00 19.6 °C 2.4 °C 1010.2 hPa WNW 16.1 km/h 27.4 km/h 32% 0.0 mm CLR
18:05 19.6 °C 2.4 °C 1010.1 hPa WNW 16.1 km/h 30.6 km/h 32% 0.0 mm CLR
18:10 19.6 °C 2.4 °C 1010.1 hPa West 18.3 km/h 33.3 km/h 32% 0.0 mm CLR
18:15 19.6 °C 2.9 °C 1010.1 hPa WNW 19.3 km/h 35.4 km/h 33% 0.0 mm CLR
18:20 19.7 °C 2.9 °C 1010.1 hPa West 21.7 km/h 31.5 km/h 33% 0.0 mm CLR
18:25 19.8 °C 2.2 °C 1010.1 hPa WNW 21.7 km/h 33.3 km/h 31% 0.0 mm CLR
18:30 19.8 °C 2.6 °C 1010.1 hPa WNW 24.1 km/h 48.3 km/h 32% 0.0 mm CLR
18:35 19.4 °C 4.3 °C 1010.3 hPa WNW 24.1 km/h 45.1 km/h 37% 0.0 mm CLR
18:39 19.1 °C 4.4 °C 1010.3 hPa NW 26.2 km/h 31.7 km/h 38% 0.0 mm CLR
18:45 19.0 °C 4.4 °C 1010.3 hPa NW 25.7 km/h 41.8 km/h 38% 0.0 mm CLR
18:50 19.0 °C 4.7 °C 1010.4 hPa NW 24.1 km/h 41.8 km/h 39% 0.0 mm CLR
18:55 18.9 °C 4.6 °C 1010.4 hPa NW 24.1 km/h 45.1 km/h 39% 0.0 mm CLR
19:00 18.9 °C 4.6 °C 1010.4 hPa WNW 22.5 km/h 45.1 km/h 39% 0.0 mm CLR
19:05 18.8 °C 4.6 °C 1010.7 hPa West 22.5 km/h 25.9 km/h 39% 0.0 mm CLR
19:09 18.8 °C 4.2 °C 1010.7 hPa West 22.0 km/h 35.2 km/h 38% 0.0 mm CLR
19:15 18.9 °C 3.9 °C 1010.7 hPa WNW 22.5 km/h 37.0 km/h 37% 0.0 mm CLR
19:20 19.1 °C 4.1 °C 1010.6 hPa WNW 20.9 km/h 32.2 km/h 37% 0.0 mm CLR
19:25 19.2 °C 3.3 °C 1010.6 hPa WNW 20.9 km/h 22.2 km/h 35% 0.0 mm CLR
19:30 19.2 °C 3.3 °C 1010.6 hPa WNW 16.1 km/h 33.8 km/h 35% 0.0 mm CLR
19:35 19.2 °C 2.9 °C 1010.7 hPa West 16.1 km/h 33.8 km/h 34% 0.0 mm CLR
19:40 19.2 °C 2.9 °C 1010.7 hPa West 20.9 km/h 33.8 km/h 34% 0.0 mm CLR
19:45 19.2 °C 2.9 °C 1010.7 hPa WSW 19.8 km/h 25.9 km/h 34% 0.0 mm CLR
19:50 19.2 °C 2.5 °C 1010.7 hPa West 17.2 km/h 27.8 km/h 33% 0.0 mm CLR
19:55 19.1 °C 2.4 °C 1010.7 hPa West 16.1 km/h 27.4 km/h 33% 0.0 mm CLR
20:00 18.9 °C 2.7 °C 1010.7 hPa West 16.1 km/h 27.4 km/h 34% 0.0 mm CLR
20:05 18.9 °C 2.7 °C 1010.8 hPa West 16.1 km/h 25.7 km/h 34% 0.0 mm CLR
20:10 18.8 °C 2.6 °C 1010.8 hPa West 14.5 km/h 30.6 km/h 34% 0.0 mm CLR
20:15 18.7 °C 2.9 °C 1010.8 hPa West 14.5 km/h 24.1 km/h 35% 0.0 mm CLR
20:20 18.6 °C 2.8 °C 1010.8 hPa West 12.9 km/h 17.7 km/h 35% 0.0 mm CLR
20:25 18.4 °C 3.1 °C 1010.8 hPa West 12.2 km/h 14.8 km/h 36% 0.0 mm CLR
20:30 18.3 °C 2.9 °C 1010.8 hPa West 10.0 km/h 13.0 km/h 36% 0.0 mm CLR
20:35 18.2 °C 3.3 °C 1011.0 hPa WNW 10.0 km/h 11.1 km/h 37% 0.0 mm CLR
20:40 18.1 °C 3.2 °C 1011.0 hPa WNW 8.0 km/h 14.5 km/h 37% 0.0 mm CLR
20:45 18.0 °C 3.5 °C 1011.0 hPa WNW 8.0 km/h 16.1 km/h 38% 0.0 mm CLR
20:50 17.9 °C 3.4 °C 1011.1 hPa WNW 8.7 km/h 9.3 km/h 38% 0.0 mm CLR
20:55 17.8 °C 3.3 °C 1011.1 hPa NW 8.7 km/h 16.7 km/h 38% 0.0 mm CLR
21:00 17.7 °C 3.9 °C 1011.1 hPa NW 9.7 km/h 24.1 km/h 40% 0.0 mm CLR
21:05 17.3 °C 4.3 °C 1011.3 hPa NNW 8.7 km/h 16.7 km/h 42% 0.0 mm CLR
21:09 17.0 °C 4.3 °C 1011.3 hPa WNW 11.1 km/h 18.0 km/h 43% 0.0 mm CLR
21:15 16.8 °C 4.4 °C 1011.3 hPa WNW 11.1 km/h 7.4 km/h 44% 0.0 mm CLR
21:20 16.7 °C 4.7 °C 1011.4 hPa NW 8.0 km/h 9.7 km/h 45% 0.0 mm CLR
21:25 16.6 °C 4.6 °C 1011.4 hPa NNW 7.6 km/h 14.8 km/h 45% 0.0 mm CLR
21:30 16.5 °C 4.8 °C 1011.4 hPa NW 7.6 km/h 7.4 km/h 46% 0.0 mm CLR
21:35 16.4 °C 4.7 °C 1011.7 hPa NW 8.0 km/h 11.3 km/h 46% 0.0 mm CLR
21:40 16.3 °C 4.7 °C 1011.7 hPa NW 4.8 km/h 9.7 km/h 46% 0.0 mm CLR
21:45 16.3 °C 4.9 °C 1011.7 hPa West 5.8 km/h 7.4 km/h 47% 0.0 mm CLR
21:50 16.2 °C 4.9 °C 1012.1 hPa West 4.8 km/h 8.0 km/h 47% 0.0 mm CLR
21:55 16.1 °C 4.8 °C 1012.1 hPa WSW 5.0 km/h 10.0 km/h 47% 0.0 mm CLR
22:00 16.1 °C 5.1 °C 1012.1 hPa West 4.8 km/h 9.7 km/h 48% 0.0 mm CLR
22:05 16.1 °C 5.1 °C 1012.3 hPa West 5.0 km/h 11.1 km/h 48% 0.0 mm CLR
22:10 16.0 °C 5.0 °C 1012.3 hPa WNW 6.4 km/h 13.0 km/h 48% 0.0 mm CLR
22:15 16.0 °C 5.0 °C 1012.3 hPa WNW 8.0 km/h 16.1 km/h 48% 0.0 mm CLR
22:20 15.9 °C 4.9 °C 1012.3 hPa WNW 9.7 km/h 19.3 km/h 48% 0.0 mm CLR
22:25 15.9 °C 4.9 °C 1012.3 hPa NW 10.0 km/h 9.3 km/h 48% 0.0 mm CLR
22:30 15.8 °C 5.1 °C 1012.3 hPa West 8.4 km/h 5.6 km/h 49% 0.0 mm CLR
22:35 15.8 °C 5.1 °C 1012.5 hPa SW 8.4 km/h 5.6 km/h 49% 0.0 mm CLR
22:40 15.8 °C 5.1 °C 1012.5 hPa SW 3.9 km/h 3.9 km/h 49% 0.0 mm CLR
22:45 15.8 °C 5.1 °C 1012.5 hPa SW 3.9 km/h 7.4 km/h 49% 0.0 mm CLR
22:50 15.8 °C 5.1 °C 1012.6 hPa SW 3.2 km/h 5.8 km/h 49% 0.0 mm CLR
22:55 15.9 °C 5.2 °C 1012.6 hPa SSW 3.2 km/h 9.3 km/h 49% 0.0 mm CLR
23:00 15.9 °C 5.2 °C 1012.6 hPa SSW 4.8 km/h 11.3 km/h 49% 0.0 mm CLR
23:05 15.8 °C 5.1 °C 1012.7 hPa South 4.8 km/h 11.3 km/h 49% 0.0 mm CLR
23:10 15.7 °C 5.0 °C 1012.7 hPa South 4.8 km/h 8.0 km/h 49% 0.0 mm CLR
23:15 15.7 °C 5.0 °C 1012.7 hPa SSW 5.0 km/h 7.4 km/h 49% 0.0 mm CLR
23:20 15.7 °C 4.7 °C 1012.6 hPa SSW 3.2 km/h 9.7 km/h 48% 0.0 mm CLR
23:25 15.8 °C 4.8 °C 1012.6 hPa West 4.7 km/h 7.4 km/h 48% 0.0 mm CLR
23:30 15.7 °C 4.7 °C 1012.6 hPa SW 5.0 km/h 7.4 km/h 48% 0.0 mm CLR
23:35 15.7 °C 4.7 °C 1012.5 hPa WSW 4.8 km/h 11.3 km/h 48% 0.0 mm CLR
23:39 15.7 °C 4.4 °C 1012.5 hPa West 6.4 km/h 9.3 km/h 47% 0.0 mm CLR
23:45 15.7 °C 4.1 °C 1012.5 hPa SW 6.4 km/h 16.7 km/h 46% 0.0 mm CLR
23:50 15.7 °C 4.1 °C 1012.6 hPa SW 8.0 km/h 20.9 km/h 46% 0.0 mm CLR
23:55 15.7 °C 4.1 °C 1012.6 hPa SW 8.4 km/h 13.0 km/h 46% 0.0 mm CLR
Murcia-Puente Tocinos, España
Compliments of Weather Underground - 2.75 mb

La estación de MeteoMurcia.com, publica sus datos en los siguientes proyectos:

Weather Underground PWS IMURCIAP2 Meteoclimatic www.awekas.at

W3Counter
Web Analytics